createdAt,value
2023-04-09T00:01:00.335Z,99854.33
2023-04-09T00:02:05.571Z,99854.16
2023-04-09T00:03:11.017Z,99859
2023-04-09T00:04:16.393Z,99857.25
2023-04-09T00:05:21.656Z,99854.98
2023-04-09T00:06:26.835Z,99854.16
2023-04-09T00:07:32.044Z,99848.29
2023-04-09T00:08:37.218Z,99848.39
2023-04-09T00:09:42.384Z,99853.3
2023-04-09T00:10:47.633Z,99855.16
2023-04-09T00:11:52.814Z,99859.1
2023-04-09T00:12:58.000Z,99859.58
2023-04-09T00:14:03.206Z,99857.93
2023-04-09T00:15:17.719Z,99857.42
2023-04-09T00:16:35.542Z,99856.42
2023-04-09T00:17:40.862Z,99858.66
2023-04-09T00:18:46.173Z,99865.03
2023-04-09T00:19:51.414Z,99865.45
2023-04-09T00:20:56.626Z,99855.84
2023-04-09T00:22:01.827Z,99863.87
2023-04-09T00:23:07.036Z,99862.02
2023-04-09T00:24:12.271Z,99859.95
2023-04-09T00:25:17.451Z,99868.91
2023-04-09T00:26:22.706Z,99862.13
2023-04-09T00:27:27.906Z,99865.31
2023-04-09T00:28:33.138Z,99859.44
2023-04-09T00:29:38.379Z,99866.3
2023-04-09T00:30:43.693Z,99864.38
2023-04-09T00:31:48.955Z,99859.44
2023-04-09T00:32:54.296Z,99861.3
2023-04-09T00:33:59.573Z,99861.3
2023-04-09T00:35:04.772Z,99859.78
2023-04-09T00:36:10.144Z,99858.28
2023-04-09T00:37:15.421Z,99859.2
2023-04-09T00:38:20.624Z,99855.53
2023-04-09T00:39:25.852Z,99861.05
2023-04-09T00:40:31.062Z,99865.48
2023-04-09T00:41:36.291Z,99862.46
2023-04-09T00:42:41.467Z,99860.88
2023-04-09T00:43:46.648Z,99858.72
2023-04-09T00:44:51.843Z,99856.97
2023-04-09T00:45:57.171Z,99856.28
2023-04-09T00:47:02.524Z,99861.91
2023-04-09T00:48:07.728Z,99860.47
2023-04-09T00:49:12.936Z,99860.47
2023-04-09T00:50:18.164Z,99859.13
2023-04-09T00:51:23.377Z,99861.09
2023-04-09T00:52:28.573Z,99855.39
2023-04-09T00:53:33.797Z,99858.89
2023-04-09T00:54:39.048Z,99866.75
2023-04-09T00:55:44.304Z,99861.57
2023-04-09T00:56:49.538Z,99860.98
2023-04-09T00:57:54.716Z,99863.66
2023-04-09T00:58:59.874Z,99859.75
2023-04-09T01:00:05.068Z,99855.91
2023-04-09T01:01:10.307Z,99852.72
2023-04-09T01:02:15.843Z,99856.83
2023-04-09T01:03:21.335Z,99859.75
2023-04-09T01:04:26.737Z,99855.29
2023-04-09T01:05:31.919Z,99859.41
2023-04-09T01:06:37.102Z,99851.48
2023-04-09T01:07:42.307Z,99854.57
2023-04-09T01:08:47.528Z,99848.56
2023-04-09T01:09:52.724Z,99853.23
2023-04-09T01:10:57.927Z,99854.57
2023-04-09T01:12:03.123Z,99853.41
2023-04-09T01:13:08.318Z,99846.37
2023-04-09T01:14:13.496Z,99853.98
2023-04-09T01:15:18.691Z,99849.97
2023-04-09T01:16:23.971Z,99853.81
2023-04-09T01:17:29.334Z,99855.56
2023-04-09T01:18:35.012Z,99852.48
2023-04-09T01:19:41.183Z,99855.16
2023-04-09T01:20:46.380Z,99853.41
2023-04-09T01:21:51.569Z,99848.33
2023-04-09T01:22:56.754Z,99854.81
2023-04-09T01:24:01.950Z,99851.23
2023-04-09T01:25:07.149Z,99849.45
2023-04-09T01:26:12.394Z,99855.08
2023-04-09T01:27:17.589Z,99850.08
2023-04-09T01:28:22.791Z,99850.08
2023-04-09T01:29:28.012Z,99854.26
2023-04-09T01:30:33.264Z,99853.16
2023-04-09T01:31:38.628Z,99849.83
2023-04-09T01:32:43.894Z,99854.16
2023-04-09T01:33:49.111Z,99849.42
2023-04-09T01:34:54.294Z,99854.16
2023-04-09T01:35:59.507Z,99859.78
2023-04-09T01:37:04.795Z,99851.86
2023-04-09T01:38:10.005Z,99856.42
2023-04-09T01:39:15.176Z,99858.27
2023-04-09T01:40:20.369Z,99846.91
2023-04-09T01:41:25.630Z,99849.83
2023-04-09T01:42:30.864Z,99854.12
2023-04-09T01:43:36.073Z,99848.16
2023-04-09T01:44:41.254Z,99853.02
2023-04-09T01:45:46.600Z,99852.16
2023-04-09T01:46:51.901Z,99851.52
2023-04-09T01:47:57.125Z,99848.77
2023-04-09T01:49:02.373Z,99851.45
2023-04-09T01:50:07.582Z,99848.84
2023-04-09T01:51:12.796Z,99853.27
2023-04-09T01:52:18.076Z,99854.12
2023-04-09T01:53:23.244Z,99847.26
2023-04-09T01:54:28.485Z,99858.2
2023-04-09T01:55:33.673Z,99851.2
2023-04-09T01:56:38.852Z,99851.61
2023-04-09T01:57:44.022Z,99848.77
2023-04-09T01:58:49.211Z,99857.14
2023-04-09T01:59:55.012Z,99854.05
2023-04-09T02:01:00.263Z,99851.78
2023-04-09T02:02:05.571Z,99852.71
2023-04-09T02:03:10.999Z,99850.03
2023-04-09T02:04:16.409Z,99862.91
2023-04-09T02:05:21.637Z,99852.88
2023-04-09T02:06:26.838Z,99853.7
2023-04-09T02:07:32.032Z,99856.8
2023-04-09T02:08:37.219Z,99858.58
2023-04-09T02:09:42.434Z,99859.91
2023-04-09T02:10:47.650Z,99857.45
2023-04-09T02:11:52.828Z,99858.23
2023-04-09T02:12:58.009Z,99857.45
2023-04-09T02:14:03.255Z,99863.66
2023-04-09T02:15:08.489Z,99868.15
2023-04-09T02:16:13.844Z,99858.78
2023-04-09T02:17:19.207Z,99862.39
2023-04-09T02:18:24.554Z,99860.64
2023-04-09T02:19:29.716Z,99859.71
2023-04-09T02:20:34.987Z,99862.14
2023-04-09T02:21:40.169Z,99869.08
2023-04-09T02:22:45.386Z,99862.08
2023-04-09T02:23:50.717Z,99864.23
2023-04-09T02:24:55.924Z,99867.84
2023-04-09T02:26:01.085Z,99864.23
2023-04-09T02:27:06.300Z,99864.09
2023-04-09T02:28:11.519Z,99867.08
2023-04-09T02:29:16.730Z,99867.08
2023-04-09T02:30:21.918Z,99866.02
2023-04-09T02:31:27.276Z,99868.01
2023-04-09T02:32:32.656Z,99862.76
2023-04-09T02:33:37.940Z,99869
2023-04-09T02:34:43.296Z,99863.24
2023-04-09T02:35:48.549Z,99858.5
2023-04-09T02:36:53.863Z,99861.08
2023-04-09T02:37:59.121Z,99867.25
2023-04-09T02:39:04.300Z,99861.25
2023-04-09T02:40:09.492Z,99866.43
2023-04-09T02:41:14.681Z,99865.77
2023-04-09T02:42:19.871Z,99863.34
2023-04-09T02:43:25.153Z,99867.35
2023-04-09T02:44:30.360Z,99861.77
2023-04-09T02:45:35.602Z,99863
2023-04-09T02:46:40.948Z,99866.59
2023-04-09T02:47:46.602Z,99862.69
2023-04-09T02:48:52.402Z,99862.75
2023-04-09T02:49:58.012Z,99860.18
2023-04-09T02:51:03.217Z,99861.93
2023-04-09T02:52:08.425Z,99856.48
2023-04-09T02:53:13.623Z,99854.83
2023-04-09T02:54:18.828Z,99864.7
2023-04-09T02:55:24.040Z,99858.33
2023-04-09T02:56:29.248Z,99857.41
2023-04-09T02:57:35.035Z,99857.61
2023-04-09T02:58:40.239Z,99857.5
2023-04-09T02:59:45.442Z,99856.75
2023-04-09T03:00:50.617Z,99858.33
2023-04-09T03:01:55.908Z,99855.52
2023-04-09T03:03:01.662Z,99855.52
2023-04-09T03:04:07.312Z,99858.53
2023-04-09T03:05:12.820Z,99858.09
2023-04-09T03:06:18.025Z,99857.67
2023-04-09T03:07:23.312Z,99856.92
2023-04-09T03:08:28.563Z,99854.45
2023-04-09T03:09:33.773Z,99860.04
2023-04-09T03:10:38.980Z,99856.85
2023-04-09T03:11:44.168Z,99856.09
2023-04-09T03:12:49.409Z,99856.09
2023-04-09T03:13:54.579Z,99860.52
2023-04-09T03:14:59.788Z,99858.12
2023-04-09T03:16:05.099Z,99856.78
2023-04-09T03:17:10.425Z,99862.64
2023-04-09T03:18:15.613Z,99862.03
2023-04-09T03:19:20.873Z,99862.7
2023-04-09T03:20:26.081Z,99863.56
2023-04-09T03:21:31.235Z,99864.05
2023-04-09T03:22:36.410Z,99864.91
2023-04-09T03:23:41.616Z,99863.56
2023-04-09T03:24:46.810Z,99861.47
2023-04-09T03:25:51.999Z,99861.3
2023-04-09T03:26:57.207Z,99866
2023-04-09T03:28:02.395Z,99865.39
2023-04-09T03:29:07.574Z,99867.65
2023-04-09T03:30:12.781Z,99865.39
2023-04-09T03:31:18.060Z,99867.14
2023-04-09T03:32:23.432Z,99866.92
2023-04-09T03:33:28.695Z,99864.05
2023-04-09T03:34:33.892Z,99866.06
2023-04-09T03:35:39.205Z,99858.45
2023-04-09T03:36:44.471Z,99859.89
2023-04-09T03:37:49.669Z,99859.65
2023-04-09T03:38:55.331Z,99860.3
2023-04-09T03:40:00.550Z,99857.8
2023-04-09T03:41:05.790Z,99855.64
2023-04-09T03:42:10.970Z,99861.4
2023-04-09T03:43:16.174Z,99861.09
2023-04-09T03:44:21.371Z,99859.23
2023-04-09T03:45:26.569Z,99859.09
2023-04-09T03:46:32.042Z,99865.83
2023-04-09T03:47:37.362Z,99863.15
2023-04-09T03:48:42.658Z,99861.09
2023-04-09T03:49:47.844Z,99867.43
2023-04-09T03:50:53.050Z,99866
2023-04-09T03:51:58.271Z,99868.67
2023-04-09T03:53:03.485Z,99862.77
2023-04-09T03:54:08.654Z,99867.84
2023-04-09T03:55:13.856Z,99859.58
2023-04-09T03:56:19.040Z,99866.51
2023-04-09T03:57:24.235Z,99866.27
2023-04-09T03:58:29.484Z,99871.95
2023-04-09T03:59:34.685Z,99868.87
2023-04-09T04:00:39.851Z,99866.61
2023-04-09T04:01:45.206Z,99863.93
2023-04-09T04:02:51.011Z,99863.93
2023-04-09T04:03:57.018Z,99868.87
2023-04-09T04:05:02.370Z,99868.77
2023-04-09T04:06:07.587Z,99868.11
2023-04-09T04:07:12.797Z,99869.04
2023-04-09T04:08:17.978Z,99870.2
2023-04-09T04:09:23.156Z,99868.53
2023-04-09T04:10:28.349Z,99874.46
2023-04-09T04:11:33.557Z,99872.09
2023-04-09T04:12:38.755Z,99871.17
2023-04-09T04:13:44.011Z,99868.45
2023-04-09T04:14:49.209Z,99874.92
2023-04-09T04:15:54.540Z,99878.91
2023-04-09T04:16:59.812Z,99879.05
2023-04-09T04:18:05.012Z,99874.59
2023-04-09T04:19:10.173Z,99868.77
2023-04-09T04:20:16.651Z,99870.52
2023-04-09T04:21:21.901Z,99874.67
2023-04-09T04:22:27.749Z,99872.85
2023-04-09T04:23:33.014Z,99872.17
2023-04-09T04:24:38.211Z,99876.56
2023-04-09T04:25:43.493Z,99872.79
2023-04-09T04:26:48.654Z,99871.28
2023-04-09T04:27:53.886Z,99876.19
2023-04-09T04:28:59.101Z,99869.91
2023-04-09T04:30:04.307Z,99873.17
2023-04-09T04:31:09.532Z,99875.16
2023-04-09T04:32:14.737Z,99873.45
2023-04-09T04:33:19.898Z,99876.36
2023-04-09T04:34:25.148Z,99874.34
2023-04-09T04:35:30.396Z,99879.34
2023-04-09T04:36:35.668Z,99876.09
2023-04-09T04:37:40.853Z,99878.66
2023-04-09T04:38:46.037Z,99878.55
2023-04-09T04:39:51.216Z,99884.39
2023-04-09T04:40:56.414Z,99879.75
2023-04-09T04:42:01.653Z,99883.53
2023-04-09T04:43:06.849Z,99884.83
2023-04-09T04:44:12.026Z,99881.05
2023-04-09T04:45:17.218Z,99879.02
2023-04-09T04:46:22.647Z,99880.77
2023-04-09T04:47:28.027Z,99882.35
2023-04-09T04:48:33.444Z,99879.91
2023-04-09T04:49:38.638Z,99885.23
2023-04-09T04:50:43.816Z,99884.54
2023-04-09T04:51:49.042Z,99885.94
2023-04-09T04:52:54.257Z,99888.2
2023-04-09T04:53:59.459Z,99884.02
2023-04-09T04:55:04.733Z,99885.36
2023-04-09T04:56:10.028Z,99882.69
2023-04-09T04:57:15.234Z,99887.8
2023-04-09T04:58:20.465Z,99883.89
2023-04-09T04:59:25.668Z,99888.08
2023-04-09T05:00:30.888Z,99891.38
2023-04-09T05:01:36.314Z,99885.44
2023-04-09T05:02:42.307Z,99893.99
2023-04-09T05:03:47.999Z,99890.91
2023-04-09T05:04:53.474Z,99887.37
2023-04-09T05:05:58.677Z,99893.83
2023-04-09T05:07:03.878Z,99894.75
2023-04-09T05:08:09.069Z,99894.34
2023-04-09T05:09:14.337Z,99895.68
2023-04-09T05:10:19.559Z,99888.98
2023-04-09T05:11:24.753Z,99893.23
2023-04-09T05:12:29.929Z,99889.13
2023-04-09T05:13:35.107Z,99890.91
2023-04-09T05:14:40.364Z,99892.79
2023-04-09T05:15:45.536Z,99888.5
2023-04-09T05:16:50.877Z,99887.77
2023-04-09T05:17:56.267Z,99892.75
2023-04-09T05:19:01.537Z,99890.72
2023-04-09T05:20:06.783Z,99887.8
2023-04-09T05:21:11.997Z,99890.78
2023-04-09T05:22:17.185Z,99889.48
2023-04-09T05:23:22.393Z,99889.07
2023-04-09T05:24:27.572Z,99888.73
2023-04-09T05:25:32.803Z,99889.94
2023-04-09T05:26:37.981Z,99891.58
2023-04-09T05:27:43.198Z,99891.04
2023-04-09T05:28:48.394Z,99891.97
2023-04-09T05:29:53.793Z,99892.79
2023-04-09T05:30:59.120Z,99892.96
2023-04-09T05:32:04.352Z,99898.19
2023-04-09T05:33:09.610Z,99893.34
2023-04-09T05:34:14.796Z,99900.76
2023-04-09T05:35:20.004Z,99899.42
2023-04-09T05:36:25.202Z,99898.42
2023-04-09T05:37:30.462Z,99900.23
2023-04-09T05:38:35.715Z,99895.39
2023-04-09T05:39:40.909Z,99880.64
2023-04-09T05:40:47.618Z,99903.94
2023-04-09T05:41:52.922Z,99902.42
2023-04-09T05:42:58.143Z,99898.41
2023-04-09T05:44:03.375Z,99900.27
2023-04-09T05:45:08.668Z,99909.02
2023-04-09T05:46:14.064Z,99903.02
2023-04-09T05:47:19.401Z,99907.44
2023-04-09T05:48:24.688Z,99900.84
2023-04-09T05:49:29.860Z,99909.47
2023-04-09T05:50:53.669Z,99909.58
2023-04-09T05:52:00.035Z,99911.19
2023-04-09T05:53:05.240Z,99912.02
2023-04-09T05:54:10.454Z,99916.03
2023-04-09T05:55:15.645Z,99912.59
2023-04-09T05:56:20.851Z,99917.55
2023-04-09T05:57:26.024Z,99916.13
2023-04-09T05:58:31.468Z,99915.28
2023-04-09T05:59:36.909Z,99914.69
2023-04-09T06:00:42.095Z,99920.35
2023-04-09T06:01:47.390Z,99920.48
2023-04-09T06:02:52.853Z,99921.89
2023-04-09T06:04:00.301Z,99918.7
2023-04-09T06:05:06.505Z,99914.92
2023-04-09T06:06:11.776Z,99919.76
2023-04-09T06:07:16.960Z,99915.16
2023-04-09T06:08:22.147Z,99915.44
2023-04-09T06:09:27.359Z,99916.84
2023-04-09T06:10:32.609Z,99915.84
2023-04-09T06:11:37.813Z,99926.15
2023-04-09T06:12:43.026Z,99922.2
2023-04-09T06:13:48.213Z,99917.87
2023-04-09T06:14:53.521Z,99916.88
2023-04-09T06:15:58.797Z,99921
2023-04-09T06:17:04.095Z,99925.33
2023-04-09T06:18:09.407Z,99924.51
2023-04-09T06:19:14.600Z,99923.17
2023-04-09T06:20:20.159Z,99923.69
2023-04-09T06:21:25.393Z,99922.93
2023-04-09T06:22:30.569Z,99921.69
2023-04-09T06:23:35.752Z,99922.17
2023-04-09T06:24:40.956Z,99921.97
2023-04-09T06:25:46.181Z,99923.1
2023-04-09T06:26:51.353Z,99912.8
2023-04-09T06:27:56.629Z,99925.88
2023-04-09T06:29:01.843Z,99920.7
2023-04-09T06:30:07.056Z,99923.96
2023-04-09T06:31:12.411Z,99921.94
2023-04-09T06:32:17.692Z,99926.91
2023-04-09T06:33:22.996Z,99925.8
2023-04-09T06:34:28.270Z,99920.14
2023-04-09T06:35:33.616Z,99927.08
2023-04-09T06:36:38.948Z,99934.59
2023-04-09T06:37:44.216Z,99928.41
2023-04-09T06:38:49.448Z,99926.15
2023-04-09T06:40:02.682Z,99935.11
2023-04-09T06:41:07.911Z,99925.57
2023-04-09T06:42:13.175Z,99935.29
2023-04-09T06:43:18.362Z,99926.91
2023-04-09T06:44:23.563Z,99930.69
2023-04-09T06:45:28.781Z,99933.3
2023-04-09T06:46:34.037Z,99933.47
2023-04-09T06:47:39.744Z,99933.81
2023-04-09T06:48:45.050Z,99935.64
2023-04-09T06:49:50.242Z,99936.25
2023-04-09T06:50:55.442Z,99930.45
2023-04-09T06:52:00.631Z,99937.66
2023-04-09T06:53:05.850Z,99936.33
2023-04-09T06:54:11.045Z,99936.42
2023-04-09T06:55:16.247Z,99932
2023-04-09T06:56:21.493Z,99937.35
2023-04-09T06:57:26.656Z,99934.75
2023-04-09T06:58:31.868Z,99934.33
2023-04-09T06:59:37.079Z,99933.55
2023-04-09T07:00:42.324Z,99942.06
2023-04-09T07:01:47.814Z,99939.04
2023-04-09T07:02:54.366Z,99944.3
2023-04-09T07:04:00.298Z,99943.88
2023-04-09T07:05:05.601Z,99943.06
2023-04-09T07:06:10.822Z,99936.22
2023-04-09T07:07:16.200Z,99941.3
2023-04-09T07:08:21.397Z,99950.34
2023-04-09T07:09:26.614Z,99944.98
2023-04-09T07:10:31.819Z,99943.74
2023-04-09T07:11:37.008Z,99943.81
2023-04-09T07:12:42.200Z,99951.37
2023-04-09T07:13:47.417Z,99950.75
2023-04-09T07:14:52.696Z,99945.84
2023-04-09T07:15:57.952Z,99946.56
2023-04-09T07:17:03.227Z,99951.23
2023-04-09T07:18:08.552Z,99954.15
2023-04-09T07:19:13.814Z,99941.38
2023-04-09T07:20:19.023Z,99943.77
2023-04-09T07:21:24.627Z,99949.13
2023-04-09T07:22:29.817Z,99946.86
2023-04-09T07:23:35.028Z,99945.11
2023-04-09T07:24:40.228Z,99940.82
2023-04-09T07:25:45.464Z,99944.77
2023-04-09T07:26:53.281Z,99944.56
2023-04-09T07:27:58.516Z,99943.63
2023-04-09T07:29:03.718Z,99940.88
2023-04-09T07:30:09.244Z,99942.13
2023-04-09T07:31:14.539Z,99937.45
2023-04-09T07:32:19.788Z,99938.72
2023-04-09T07:33:25.066Z,99937.14
2023-04-09T07:34:30.272Z,99940.37
2023-04-09T07:35:35.532Z,99944.39
2023-04-09T07:36:40.825Z,99924.82
2023-04-09T07:37:46.112Z,99942.53
2023-04-09T07:38:51.713Z,99941.7
2023-04-09T07:39:57.292Z,99947.41
2023-04-09T07:41:02.483Z,99940.75
2023-04-09T07:42:07.895Z,99945.9
2023-04-09T07:43:13.142Z,99947.23
2023-04-09T07:44:18.349Z,99941.47
2023-04-09T07:45:23.668Z,99945.73
2023-04-09T07:46:28.966Z,99946.24
2023-04-09T07:47:34.232Z,99940.13
2023-04-09T07:48:39.463Z,99941.88
2023-04-09T07:49:44.690Z,99936.34
2023-04-09T07:50:49.898Z,99938.1
2023-04-09T07:51:55.087Z,99939.78
2023-04-09T07:53:00.280Z,99939.68
2023-04-09T07:54:05.513Z,99940.78
2023-04-09T07:55:10.701Z,99943.7
2023-04-09T07:56:15.884Z,99935.66
2023-04-09T07:57:21.096Z,99936.14
2023-04-09T07:58:26.312Z,99938.51
2023-04-09T07:59:31.668Z,99936.23
2023-04-09T08:00:36.917Z,99945.93
2023-04-09T08:01:42.282Z,99945.86
2023-04-09T08:02:48.081Z,99944.03
2023-04-09T08:03:54.224Z,99942.77
2023-04-09T08:04:59.804Z,99944.38
2023-04-09T08:06:05.218Z,99939.23
2023-04-09T08:07:10.427Z,99942.59
2023-04-09T08:08:15.633Z,99942.25
2023-04-09T08:09:20.996Z,99939.57
2023-04-09T08:10:26.213Z,99948.63
2023-04-09T08:11:31.439Z,99944.38
2023-04-09T08:12:36.626Z,99942.83
2023-04-09T08:13:41.808Z,99939.33
2023-04-09T08:14:47.031Z,99937.67
2023-04-09T08:15:52.231Z,99938.57
2023-04-09T08:16:57.499Z,99938.4
2023-04-09T08:18:02.786Z,99936.23
2023-04-09T08:19:08.114Z,99933.14
2023-04-09T08:20:13.344Z,99933.14
2023-04-09T08:21:18.506Z,99937.3
2023-04-09T08:22:23.712Z,99939.56
2023-04-09T08:23:28.897Z,99931.28
2023-04-09T08:24:34.094Z,99942.06
2023-04-09T08:25:39.302Z,99939.39
2023-04-09T08:26:44.528Z,99932.92
2023-04-09T08:27:49.729Z,99938.05
2023-04-09T08:28:55.572Z,99941.27
2023-04-09T08:30:03.908Z,99939.11
2023-04-09T08:31:09.202Z,99936.12
2023-04-09T08:32:14.480Z,99938.11
2023-04-09T08:33:19.805Z,99943.13
2023-04-09T08:34:25.050Z,99936.95
2023-04-09T08:35:30.395Z,99940.37
2023-04-09T08:36:35.730Z,99939.52
2023-04-09T08:37:41.141Z,99941.79
2023-04-09T08:38:46.361Z,99941.79
2023-04-09T08:39:51.602Z,99937.88
2023-04-09T08:40:56.833Z,99934.03
2023-04-09T08:42:02.072Z,99936.43
2023-04-09T08:43:07.483Z,99940.63
2023-04-09T08:44:12.723Z,99942.38
2023-04-09T08:45:17.943Z,99937.46
2023-04-09T08:46:23.307Z,99931.48
2023-04-09T08:47:29.031Z,99931.07
2023-04-09T08:48:34.510Z,99936.53
2023-04-09T08:49:39.849Z,99939.39
2023-04-09T08:50:45.112Z,99944.16
2023-04-09T08:51:50.426Z,99943.64
2023-04-09T08:52:55.774Z,99938.8
2023-04-09T08:54:05.130Z,99945.3
2023-04-09T08:55:10.623Z,99941.38
2023-04-09T08:56:15.930Z,99937.22
2023-04-09T08:57:21.134Z,99939.7
2023-04-09T08:58:26.331Z,99941.14
2023-04-09T08:59:31.532Z,99941.97
2023-04-09T09:00:36.793Z,99940.04
2023-04-09T09:01:42.391Z,99941.38
2023-04-09T09:02:47.967Z,99936.19
2023-04-09T09:03:53.611Z,99937.46
2023-04-09T09:04:59.161Z,99937.7
2023-04-09T09:06:04.336Z,99946.22
2023-04-09T09:07:09.544Z,99937.91
2023-04-09T09:08:14.814Z,99941.92
2023-04-09T09:09:20.009Z,99937.59
2023-04-09T09:10:25.283Z,99939.24
2023-04-09T09:11:30.485Z,99935.5
2023-04-09T09:12:35.717Z,99935.33
2023-04-09T09:13:40.975Z,99937.25
2023-04-09T09:14:46.205Z,99938.83
2023-04-09T09:15:51.392Z,99937.59
2023-04-09T09:16:56.755Z,99938.19
2023-04-09T09:18:02.414Z,99936.43
2023-04-09T09:19:07.820Z,99939.86
2023-04-09T09:20:13.054Z,99942.13
2023-04-09T09:21:18.281Z,99941.27
2023-04-09T09:22:23.531Z,99937.25
2023-04-09T09:23:28.889Z,99937.95
2023-04-09T09:24:34.078Z,99943.88
2023-04-09T09:25:39.257Z,99943.06
2023-04-09T09:26:44.446Z,99942.55
2023-04-09T09:27:49.639Z,99938.7
2023-04-09T09:28:55.519Z,99941.04
2023-04-09T09:30:00.932Z,99940.86
2023-04-09T09:31:06.352Z,99938.52
2023-04-09T09:32:11.786Z,99943.13
2023-04-09T09:33:17.047Z,99941.2
2023-04-09T09:34:22.276Z,99939.7
2023-04-09T09:35:27.653Z,99942.55
2023-04-09T09:36:32.924Z,99936.02
2023-04-09T09:37:38.214Z,99934.85
2023-04-09T09:38:43.416Z,99938.59
2023-04-09T09:39:48.623Z,99935.84
2023-04-09T09:40:53.998Z,99938.28
2023-04-09T09:41:59.205Z,99936.6
2023-04-09T09:43:04.416Z,99944.39
2023-04-09T09:44:09.602Z,99938.59
2023-04-09T09:45:14.830Z,99939.11
2023-04-09T09:46:20.058Z,99936.12
2023-04-09T09:47:25.500Z,99940.45
2023-04-09T09:48:30.765Z,99937.36
2023-04-09T09:49:35.944Z,99935.78
2023-04-09T09:50:41.140Z,99936.12
2023-04-09T09:51:46.325Z,99935.5
2023-04-09T09:52:51.509Z,99937.36
2023-04-09T09:53:56.722Z,99935.19
2023-04-09T09:55:01.958Z,99934.44
2023-04-09T09:56:07.168Z,99940.45
2023-04-09T09:57:12.344Z,99933.34
2023-04-09T09:58:17.624Z,99936.43
2023-04-09T09:59:22.862Z,99929.49
2023-04-09T10:00:28.089Z,99932.1
2023-04-09T10:01:33.528Z,99934.03
2023-04-09T10:02:38.983Z,99926.58
2023-04-09T10:03:44.683Z,99927.61
2023-04-09T10:04:50.193Z,99931.86
2023-04-09T10:05:55.643Z,99928.33
2023-04-09T10:07:00.892Z,99928.74
2023-04-09T10:08:06.122Z,99926.75
2023-04-09T10:09:11.348Z,99928.33
2023-04-09T10:10:16.609Z,99927.91
2023-04-09T10:11:21.782Z,99923.59
2023-04-09T10:12:26.958Z,99928.84
2023-04-09T10:13:32.193Z,99925.16
2023-04-09T10:14:37.567Z,99926.58
2023-04-09T10:15:42.827Z,99921.87
2023-04-09T10:16:48.078Z,99917.2
2023-04-09T10:17:53.400Z,99921.14
2023-04-09T10:18:58.637Z,99919.7
2023-04-09T10:20:03.857Z,99918.02
2023-04-09T10:21:09.130Z,99921.45
2023-04-09T10:22:14.415Z,99920.87
2023-04-09T10:23:19.658Z,99919.02
2023-04-09T10:24:25.103Z,99921.62
2023-04-09T10:25:30.344Z,99919.14
2023-04-09T10:26:35.551Z,99920.48
2023-04-09T10:27:40.774Z,99914.71
2023-04-09T10:28:45.964Z,99911.2
2023-04-09T10:29:51.163Z,99916.29
2023-04-09T10:30:56.401Z,99906.5
2023-04-09T10:32:01.677Z,99912.2
2023-04-09T10:33:06.955Z,99902.24
2023-04-09T10:34:12.556Z,99906.19
2023-04-09T10:35:17.749Z,99906.91
2023-04-09T10:36:23.013Z,99913.36
2023-04-09T10:37:28.297Z,99902.72
2023-04-09T10:38:33.467Z,99902.95
2023-04-09T10:39:38.648Z,99903.47
2023-04-09T10:40:43.840Z,99900.92
2023-04-09T10:41:49.024Z,99901.73
2023-04-09T10:42:54.210Z,99904.41
2023-04-09T10:43:59.379Z,99896.63
2023-04-09T10:45:04.561Z,99905.53
2023-04-09T10:46:09.890Z,99905.94
2023-04-09T10:47:15.145Z,99899.94
2023-04-09T10:48:20.344Z,99896.63
2023-04-09T10:49:25.579Z,99909.16
2023-04-09T10:50:30.915Z,99899.3
2023-04-09T10:51:36.134Z,99901.77
2023-04-09T10:52:41.387Z,99905.48
2023-04-09T10:53:46.604Z,99904.31
2023-04-09T10:54:51.807Z,99894.94
2023-04-09T10:55:57.022Z,99900.88
2023-04-09T10:57:02.194Z,99904.08
2023-04-09T10:58:09.162Z,99895.8
2023-04-09T10:59:17.666Z,99897.33
2023-04-09T11:00:22.883Z,99903.2
2023-04-09T11:01:28.194Z,99901.86
2023-04-09T11:02:33.856Z,99895.16
2023-04-09T11:03:39.544Z,99896.16
2023-04-09T11:04:44.915Z,99895.75
2023-04-09T11:05:50.218Z,99899.77
2023-04-09T11:06:55.626Z,99874.15
2023-04-09T11:08:00.821Z,99892.76
2023-04-09T11:09:05.992Z,99897.37
2023-04-09T11:10:11.186Z,99896.13
2023-04-09T11:11:16.526Z,99897.7
2023-04-09T11:12:21.794Z,99898.64
2023-04-09T11:13:27.080Z,99895.2
2023-04-09T11:14:32.280Z,99899.98
2023-04-09T11:15:37.558Z,99878.76
2023-04-09T11:16:42.891Z,99899.05
2023-04-09T11:17:48.421Z,99903.48
2023-04-09T11:18:54.202Z,99900.46
2023-04-09T11:19:59.471Z,99902.14
2023-04-09T11:21:04.875Z,99900.98
2023-04-09T11:22:10.125Z,99901.31
2023-04-09T11:23:15.316Z,99907.5
2023-04-09T11:24:20.500Z,99905.64
2023-04-09T11:25:25.737Z,99899.36
2023-04-09T11:26:30.961Z,99905.54
2023-04-09T11:27:36.261Z,99896.37
2023-04-09T11:28:41.440Z,99906.7
2023-04-09T11:29:46.642Z,99907.22
2023-04-09T11:30:51.844Z,99902.86
2023-04-09T11:31:57.217Z,99908.05
2023-04-09T11:33:02.726Z,99904.95
2023-04-09T11:34:08.101Z,99908.15
2023-04-09T11:35:13.284Z,99907.73
2023-04-09T11:36:18.550Z,99909.08
2023-04-09T11:37:23.859Z,99905.98
2023-04-09T11:38:29.072Z,99906.39
2023-04-09T11:39:34.285Z,99905.64
2023-04-09T11:40:39.461Z,99909.08
2023-04-09T11:41:44.663Z,99908.73
2023-04-09T11:42:49.903Z,99907.16
2023-04-09T11:43:55.116Z,99906.16
2023-04-09T11:45:00.293Z,99910.83
2023-04-09T11:46:05.501Z,99908.66
2023-04-09T11:47:10.910Z,99908.15
2023-04-09T11:48:16.123Z,99913.09
2023-04-09T11:49:21.312Z,99905.12
2023-04-09T11:50:26.542Z,99907.33
2023-04-09T11:51:31.753Z,99899.88
2023-04-09T11:52:36.907Z,99907.33
2023-04-09T11:53:42.096Z,99906.05
2023-04-09T11:54:47.270Z,99908.15
2023-04-09T11:55:52.544Z,99907.5
2023-04-09T11:56:57.752Z,99911.42
2023-04-09T11:58:02.999Z,99909.56
2023-04-09T11:59:08.351Z,99905.34
2023-04-09T12:00:13.583Z,99909.36
2023-04-09T12:01:18.781Z,99910.08
2023-04-09T12:02:24.476Z,99910.91
2023-04-09T12:03:30.362Z,99911.76
2023-04-09T12:04:36.280Z,99914.84
2023-04-09T12:05:46.023Z,99911.24
2023-04-09T12:06:55.157Z,99912.58
2023-04-09T12:08:00.342Z,99909.08
2023-04-09T12:09:05.593Z,99913.09
2023-04-09T12:10:10.821Z,99914.84
2023-04-09T12:11:16.025Z,99917.42
2023-04-09T12:12:21.248Z,99914.44
2023-04-09T12:13:26.429Z,99908.02
2023-04-09T12:14:31.594Z,99913.17
2023-04-09T12:15:36.794Z,99911.11
2023-04-09T12:16:42.091Z,99913.58
2023-04-09T12:17:47.398Z,99914.09
2023-04-09T12:18:53.200Z,99917.53
2023-04-09T12:19:58.968Z,99916.78
2023-04-09T12:21:04.182Z,99910.7
2023-04-09T12:22:09.469Z,99915.44
2023-04-09T12:23:14.912Z,99914.2
2023-04-09T12:24:20.117Z,99911.52
2023-04-09T12:25:25.359Z,99912.11
2023-04-09T12:26:30.613Z,99907.78
2023-04-09T12:27:35.830Z,99907.58
2023-04-09T12:28:41.033Z,99903.84
2023-04-09T12:29:46.239Z,99908.84
2023-04-09T12:30:53.819Z,99911.11
2023-04-09T12:32:04.879Z,99903.48
2023-04-09T12:33:12.518Z,99912.86
2023-04-09T12:34:17.708Z,99906.34
2023-04-09T12:35:23.291Z,99901.91
2023-04-09T12:36:28.611Z,99904.82
2023-04-09T12:37:33.848Z,99902.42
2023-04-09T12:38:39.096Z,99906.67
2023-04-09T12:39:44.281Z,99906.52
2023-04-09T12:40:49.468Z,99899.74
2023-04-09T12:41:54.647Z,99905.52
2023-04-09T12:42:59.822Z,99898.88
2023-04-09T12:44:05.114Z,99906.23
2023-04-09T12:45:10.359Z,99900.88
2023-04-09T12:46:15.667Z,99906.67
2023-04-09T12:47:20.980Z,99903.66
2023-04-09T12:48:26.240Z,99901.49
2023-04-09T12:49:31.424Z,99902.66
2023-04-09T12:50:36.655Z,99901.49